sensor_id;sensor_type;location;lat;lon;timestamp;pressure;altitude;pressure_sealevel;temperature;humidity
59009;BME280;44794;42.652;23.318;2023-07-29T00:01:05;94398.38;;;17.11;86.89
59009;BME280;44794;42.652;23.318;2023-07-29T00:03:30;94395.09;;;17.09;87.35
59009;BME280;44794;42.652;23.318;2023-07-29T00:05:57;94395.59;;;17.12;86.85
59009;BME280;44794;42.652;23.318;2023-07-29T00:08:22;94387.53;;;17.06;87.06
59009;BME280;44794;42.652;23.318;2023-07-29T00:10:48;94399.38;;;17.10;86.75
59009;BME280;44794;42.652;23.318;2023-07-29T00:13:13;94406.44;;;17.09;86.46
59009;BME280;44794;42.652;23.318;2023-07-29T00:15:38;94399.53;;;17.08;86.34
59009;BME280;44794;42.652;23.318;2023-07-29T00:18:04;94402.81;;;17.10;86.52
59009;BME280;44794;42.652;23.318;2023-07-29T00:20:29;94405.59;;;17.09;87.98
59009;BME280;44794;42.652;23.318;2023-07-29T00:22:54;94399.31;;;17.02;87.43
59009;BME280;44794;42.652;23.318;2023-07-29T00:25:21;94393.75;;;17.05;87.38
59009;BME280;44794;42.652;23.318;2023-07-29T00:27:47;94395.56;;;17.04;87.31
59009;BME280;44794;42.652;23.318;2023-07-29T00:30:12;94402.31;;;17.07;87.02
59009;BME280;44794;42.652;23.318;2023-07-29T00:32:37;94393.09;;;17.03;87.41
59009;BME280;44794;42.652;23.318;2023-07-29T00:35:03;94394.41;;;16.99;89.46
59009;BME280;44794;42.652;23.318;2023-07-29T00:37:30;94388.88;;;16.84;90.24
59009;BME280;44794;42.652;23.318;2023-07-29T00:39:56;94391.38;;;16.86;89.43
59009;BME280;44794;42.652;23.318;2023-07-29T00:42:21;94393.94;;;16.78;89.20
59009;BME280;44794;42.652;23.318;2023-07-29T00:44:46;94393.88;;;16.70;89.87
59009;BME280;44794;42.652;23.318;2023-07-29T00:47:13;94388.75;;;16.60;90.63
59009;BME280;44794;42.652;23.318;2023-07-29T00:49:40;94387.25;;;16.58;91.01
59009;BME280;44794;42.652;23.318;2023-07-29T00:52:06;94384.78;;;16.56;91.16
59009;BME280;44794;42.652;23.318;2023-07-29T00:54:31;94383.44;;;16.53;91.64
59009;BME280;44794;42.652;23.318;2023-07-29T00:56:57;94380.16;;;16.51;91.88
59009;BME280;44794;42.652;23.318;2023-07-29T00:59:22;94383.22;;;16.46;92.33
59009;BME280;44794;42.652;23.318;2023-07-29T01:01:48;94377.16;;;16.46;92.90
59009;BME280;44794;42.652;23.318;2023-07-29T01:04:14;94371.25;;;16.44;93.34
59009;BME280;44794;42.652;23.318;2023-07-29T01:12:48;94371.19;;;16.36;93.64
59009;BME280;44794;42.652;23.318;2023-07-29T01:15:18;94370.66;;;16.32;93.51
59009;BME280;44794;42.652;23.318;2023-07-29T01:17:49;94377.34;;;16.27;94.38
59009;BME280;44794;42.652;23.318;2023-07-29T01:20:17;94381.06;;;16.24;94.79
59009;BME280;44794;42.652;23.318;2023-07-29T01:22:46;94365.50;;;16.23;95.39
59009;BME280;44794;42.652;23.318;2023-07-29T01:25:13;94374.47;;;16.20;95.29
59009;BME280;44794;42.652;23.318;2023-07-29T01:27:38;94373.66;;;16.20;95.20
59009;BME280;44794;42.652;23.318;2023-07-29T01:30:05;94376.41;;;16.18;95.90
59009;BME280;44794;42.652;23.318;2023-07-29T01:37:52;94373.22;;;16.07;97.77
59009;BME280;44794;42.652;23.318;2023-07-29T01:40:19;94372.41;;;16.06;97.72
59009;BME280;44794;42.652;23.318;2023-07-29T01:42:47;94364.81;;;16.03;97.77
59009;BME280;44794;42.652;23.318;2023-07-29T01:45:13;94374.50;;;16.03;97.77
59009;BME280;44794;42.652;23.318;2023-07-29T01:47:38;94375.31;;;16.03;97.47
59009;BME280;44794;42.652;23.318;2023-07-29T01:50:06;94378.75;;;16.04;96.99
59009;BME280;44794;42.652;23.318;2023-07-29T01:52:31;94376.31;;;16.02;97.05
59009;BME280;44794;42.652;23.318;2023-07-29T01:54:57;94376.31;;;16.02;97.19
59009;BME280;44794;42.652;23.318;2023-07-29T01:57:22;94373.00;;;16.00;97.20
59009;BME280;44794;42.652;23.318;2023-07-29T01:59:48;94375.47;;;16.02;96.93
59009;BME280;44794;42.652;23.318;2023-07-29T02:02:13;94373.00;;;16.00;96.61
59009;BME280;44794;42.652;23.318;2023-07-29T02:04:38;94366.78;;;16.01;96.98
59009;BME280;44794;42.652;23.318;2023-07-29T02:07:04;94368.72;;;15.99;97.56
59009;BME280;44794;42.652;23.318;2023-07-29T02:09:29;94373.16;;;15.99;97.06
59009;BME280;44794;42.652;23.318;2023-07-29T02:11:56;94374.94;;;15.98;97.96
59009;BME280;44794;42.652;23.318;2023-07-29T02:14:22;94371.63;;;15.96;98.25
59009;BME280;44794;42.652;23.318;2023-07-29T02:16:48;94374.88;;;15.90;99.01
59009;BME280;44794;42.652;23.318;2023-07-29T02:19:14;94369.41;;;15.84;99.93
59009;BME280;44794;42.652;23.318;2023-07-29T02:21:40;94375.09;;;15.79;100.00
59009;BME280;44794;42.652;23.318;2023-07-29T02:24:05;94377.03;;;15.77;100.00
59009;BME280;44794;42.652;23.318;2023-07-29T02:26:30;94379.97;;;15.75;100.00
59009;BME280;44794;42.652;23.318;2023-07-29T02:28:56;94383.56;;;15.74;100.00
59009;BME280;44794;42.652;23.318;2023-07-29T02:31:23;94375.00;;;15.72;100.00
59009;BME280;44794;42.652;23.318;2023-07-29T02:33:49;94377.38;;;15.65;100.00
59009;BME280;44794;42.652;23.318;2023-07-29T02:36:15;94378.50;;;15.63;100.00
59009;BME280;44794;42.652;23.318;2023-07-29T02:38:41;94381.56;;;15.58;100.00
59009;BME280;44794;42.652;23.318;2023-07-29T02:41:08;94375.44;;;15.50;100.00
59009;BME280;44794;42.652;23.318;2023-07-29T02:43:35;94369.50;;;15.48;100.00
59009;BME280;44794;42.652;23.318;2023-07-29T02:46:01;94373.78;;;15.49;100.00
59009;BME280;44794;42.652;23.318;2023-07-29T02:48:26;94375.88;;;15.45;100.00
59009;BME280;44794;42.652;23.318;2023-07-29T02:50:53;94379.34;;;15.46;100.00
59009;BME280;44794;42.652;23.318;2023-07-29T02:53:18;94382.91;;;15.45;100.00
59009;BME280;44794;42.652;23.318;2023-07-29T02:55:44;94376.72;;;15.46;100.00
59009;BME280;44794;42.652;23.318;2023-07-29T02:58:09;94375.34;;;15.42;100.00
59009;BME280;44794;42.652;23.318;2023-07-29T03:00:35;94372.53;;;15.53;100.00
59009;BME280;44794;42.652;23.318;2023-07-29T03:03:00;94382.09;;;15.62;100.00
59009;BME280;44794;42.652;23.318;2023-07-29T03:05:29;94381.81;;;15.65;100.00
59009;BME280;44794;42.652;23.318;2023-07-29T03:07:54;94380.34;;;15.79;100.00
59009;BME280;44794;42.652;23.318;2023-07-29T03:10:20;94389.59;;;15.91;100.00
59009;BME280;44794;42.652;23.318;2023-07-29T03:12:46;94394.69;;;15.93;100.00
59009;BME280;44794;42.652;23.318;2023-07-29T03:15:12;94400.94;;;15.92;100.00
59009;BME280;44794;42.652;23.318;2023-07-29T03:17:37;94396.50;;;15.92;99.97
59009;BME280;44794;42.652;23.318;2023-07-29T03:20:03;94399.94;;;15.93;99.91
59009;BME280;44794;42.652;23.318;2023-07-29T03:22:28;94397.31;;;15.93;100.00
59009;BME280;44794;42.652;23.318;2023-07-29T03:24:54;94403.38;;;15.93;99.88
59009;BME280;44794;42.652;23.318;2023-07-29T03:27:19;94400.44;;;15.96;99.53
59009;BME280;44794;42.652;23.318;2023-07-29T03:29:45;94397.72;;;15.98;98.80
59009;BME280;44794;42.652;23.318;2023-07-29T03:32:11;94406.75;;;16.03;98.00
59009;BME280;44794;42.652;23.318;2023-07-29T03:34:36;94407.94;;;16.09;97.83
59009;BME280;44794;42.652;23.318;2023-07-29T03:37:02;94406.69;;;16.13;97.90
59009;BME280;44794;42.652;23.318;2023-07-29T03:39:27;94405.31;;;16.09;98.47
59009;BME280;44794;42.652;23.318;2023-07-29T03:41:53;94402.19;;;16.05;98.71
59009;BME280;44794;42.652;23.318;2023-07-29T03:44:18;94400.53;;;16.04;98.67
59009;BME280;44794;42.652;23.318;2023-07-29T03:46:44;94405.16;;;16.10;98.72
59009;BME280;44794;42.652;23.318;2023-07-29T03:49:10;94405.84;;;16.12;98.38
59009;BME280;44794;42.652;23.318;2023-07-29T03:51:35;94400.97;;;16.17;98.19
59009;BME280;44794;42.652;23.318;2023-07-29T03:54:01;94407.94;;;16.26;97.62
59009;BME280;44794;42.652;23.318;2023-07-29T03:56:26;94406.09;;;16.36;97.35
59009;BME280;44794;42.652;23.318;2023-07-29T03:58:52;94404.97;;;16.39;97.29
59009;BME280;44794;42.652;23.318;2023-07-29T04:01:18;94401.56;;;16.46;97.38
59009;BME280;44794;42.652;23.318;2023-07-29T04:03:45;94410.34;;;16.55;96.38
59009;BME280;44794;42.652;23.318;2023-07-29T04:06:12;94410.88;;;16.58;94.98
59009;BME280;44794;42.652;23.318;2023-07-29T04:08:37;94414.81;;;16.62;94.89
59009;BME280;44794;42.652;23.318;2023-07-29T04:11:03;94420.41;;;16.67;94.56
59009;BME280;44794;42.652;23.318;2023-07-29T04:13:28;94421.94;;;16.77;93.83
59009;BME280;44794;42.652;23.318;2023-07-29T04:15:53;94422.69;;;16.87;93.32
59009;BME280;44794;42.652;23.318;2023-07-29T04:18:19;94428.97;;;16.94;92.33
59009;BME280;44794;42.652;23.318;2023-07-29T04:20:44;94425.38;;;16.95;92.79
59009;BME280;44794;42.652;23.318;2023-07-29T04:23:10;94417.03;;;17.00;93.34
59009;BME280;44794;42.652;23.318;2023-07-29T04:25:35;94421.66;;;17.06;92.45
59009;BME280;44794;42.652;23.318;2023-07-29T04:28:00;94421.19;;;17.10;92.34
59009;BME280;44794;42.652;23.318;2023-07-29T04:30:28;94417.59;;;17.19;92.27
59009;BME280;44794;42.652;23.318;2023-07-29T04:32:53;94426.25;;;17.29;90.92
59009;BME280;44794;42.652;23.318;2023-07-29T04:35:19;94429.75;;;17.45;90.03
59009;BME280;44794;42.652;23.318;2023-07-29T04:37:44;94421.75;;;17.55;89.13
59009;BME280;44794;42.652;23.318;2023-07-29T04:40:10;94439.34;;;17.70;87.47
59009;BME280;44794;42.652;23.318;2023-07-29T04:42:36;94448.63;;;17.82;86.03
59009;BME280;44794;42.652;23.318;2023-07-29T04:45:02;94450.13;;;17.93;84.88
59009;BME280;44794;42.652;23.318;2023-07-29T04:47:27;94455.72;;;17.98;83.16
59009;BME280;44794;42.652;23.318;2023-07-29T04:49:53;94438.81;;;18.08;81.99
59009;BME280;44794;42.652;23.318;2023-07-29T04:52:18;94455.59;;;18.15;82.37
59009;BME280;44794;42.652;23.318;2023-07-29T04:54:44;94447.88;;;18.13;82.31
59009;BME280;44794;42.652;23.318;2023-07-29T04:57:10;94454.31;;;18.27;81.20
59009;BME280;44794;42.652;23.318;2023-07-29T04:59:35;94461.41;;;18.34;80.64
59009;BME280;44794;42.652;23.318;2023-07-29T05:02:01;94464.88;;;18.51;80.78
59009;BME280;44794;42.652;23.318;2023-07-29T05:04:26;94466.69;;;18.66;79.60
59009;BME280;44794;42.652;23.318;2023-07-29T05:06:53;94464.88;;;18.75;79.23
59009;BME280;44794;42.652;23.318;2023-07-29T05:09:19;94474.91;;;18.95;77.18
59009;BME280;44794;42.652;23.318;2023-07-29T05:11:47;94470.66;;;19.10;76.04
59009;BME280;44794;42.652;23.318;2023-07-29T05:14:14;94479.03;;;19.29;72.91
59009;BME280;44794;42.652;23.318;2023-07-29T05:16:40;94490.47;;;19.44;71.98
59009;BME280;44794;42.652;23.318;2023-07-29T05:19:06;94489.22;;;20.77;65.91
59009;BME280;44794;42.652;23.318;2023-07-29T05:21:31;94511.03;;;24.13;51.38
59009;BME280;44794;42.652;23.318;2023-07-29T05:23:57;94519.63;;;27.18;42.48
59009;BME280;44794;42.652;23.318;2023-07-29T05:26:22;94519.47;;;30.79;36.29
59009;BME280;44794;42.652;23.318;2023-07-29T05:28:48;94521.53;;;33.56;30.78
59009;BME280;44794;42.652;23.318;2023-07-29T05:31:13;94514.84;;;33.90;29.21
59009;BME280;44794;42.652;23.318;2023-07-29T05:33:38;94520.25;;;35.85;27.34
59009;BME280;44794;42.652;23.318;2023-07-29T05:36:04;94525.38;;;37.58;25.03
59009;BME280;44794;42.652;23.318;2023-07-29T05:38:30;94517.97;;;38.12;23.89
59009;BME280;44794;42.652;23.318;2023-07-29T05:40:56;94516.19;;;38.36;23.36
59009;BME280;44794;42.652;23.318;2023-07-29T05:43:21;94521.41;;;38.28;23.30
59009;BME280;44794;42.652;23.318;2023-07-29T05:45:47;94518.19;;;37.29;24.25
59009;BME280;44794;42.652;23.318;2023-07-29T05:48:12;94522.00;;;37.81;23.90
59009;BME280;44794;42.652;23.318;2023-07-29T05:50:37;94521.63;;;37.55;23.52
59009;BME280;44794;42.652;23.318;2023-07-29T05:53:03;94523.47;;;36.81;23.82
59009;BME280;44794;42.652;23.318;2023-07-29T05:55:28;94516.50;;;36.25;25.06
59009;BME280;44794;42.652;23.318;2023-07-29T05:57:54;94519.38;;;35.54;25.59
59009;BME280;44794;42.652;23.318;2023-07-29T06:00:20;94514.06;;;36.44;25.18
59009;BME280;44794;42.652;23.318;2023-07-29T06:02:45;94513.47;;;36.72;24.62
59009;BME280;44794;42.652;23.318;2023-07-29T06:05:11;94513.22;;;35.94;24.94
59009;BME280;44794;42.652;23.318;2023-07-29T06:07:37;94515.41;;;36.61;24.90
59009;BME280;44794;42.652;23.318;2023-07-29T06:10:03;94521.03;;;36.84;24.38
59009;BME280;44794;42.652;23.318;2023-07-29T06:12:28;94512.91;;;38.39;22.49
59009;BME280;44794;42.652;23.318;2023-07-29T06:14:54;94520.22;;;39.42;21.38
59009;BME280;44794;42.652;23.318;2023-07-29T06:17:19;94513.91;;;40.57;20.50
59009;BME280;44794;42.652;23.318;2023-07-29T06:19:44;94515.66;;;41.38;19.09
59009;BME280;44794;42.652;23.318;2023-07-29T06:22:10;94516.16;;;40.68;19.91
59009;BME280;44794;42.652;23.318;2023-07-29T06:24:35;94507.84;;;40.78;20.15
59009;BME280;44794;42.652;23.318;2023-07-29T06:27:01;94509.41;;;40.34;20.37
59009;BME280;44794;42.652;23.318;2023-07-29T06:29:26;94508.47;;;40.57;20.38
59009;BME280;44794;42.652;23.318;2023-07-29T06:31:52;94499.25;;;39.47;20.83
59009;BME280;44794;42.652;23.318;2023-07-29T06:34:17;94498.63;;;38.24;22.17
59009;BME280;44794;42.652;23.318;2023-07-29T06:36:44;94493.38;;;38.89;21.94
59009;BME280;44794;42.652;23.318;2023-07-29T06:39:09;94495.19;;;40.69;20.79
59009;BME280;44794;42.652;23.318;2023-07-29T06:41:34;94494.19;;;40.14;20.54
59009;BME280;44794;42.652;23.318;2023-07-29T06:44:00;94490.22;;;41.29;19.37
59009;BME280;44794;42.652;23.318;2023-07-29T06:46:25;94492.75;;;41.39;19.29
59009;BME280;44794;42.652;23.318;2023-07-29T06:48:51;94483.31;;;40.28;20.80
59009;BME280;44794;42.652;23.318;2023-07-29T06:51:16;94484.59;;;40.35;20.33
59009;BME280;44794;42.652;23.318;2023-07-29T06:53:42;94492.44;;;42.25;19.04
59009;BME280;44794;42.652;23.318;2023-07-29T06:56:07;94490.59;;;40.82;19.39
59009;BME280;44794;42.652;23.318;2023-07-29T06:58:33;94484.16;;;41.19;19.67
59009;BME280;44794;42.652;23.318;2023-07-29T07:00:58;94486.34;;;40.77;19.58
59009;BME280;44794;42.652;23.318;2023-07-29T07:03:23;94487.66;;;42.08;18.82
59009;BME280;44794;42.652;23.318;2023-07-29T07:05:49;94488.66;;;42.56;18.04
59009;BME280;44794;42.652;23.318;2023-07-29T07:08:15;94494.44;;;41.62;18.65
59009;BME280;44794;42.652;23.318;2023-07-29T07:10:40;94492.03;;;41.34;18.96
59009;BME280;44794;42.652;23.318;2023-07-29T07:13:06;94485.88;;;41.15;19.62
59009;BME280;44794;42.652;23.318;2023-07-29T07:15:31;94480.28;;;40.16;20.06
59009;BME280;44794;42.652;23.318;2023-07-29T07:17:57;94476.13;;;38.23;21.84
59009;BME280;44794;42.652;23.318;2023-07-29T07:20:22;94473.47;;;38.46;21.59
59009;BME280;44794;42.652;23.318;2023-07-29T07:22:48;94478.06;;;40.18;20.40
59009;BME280;44794;42.652;23.318;2023-07-29T07:25:13;94475.84;;;38.53;21.17
59009;BME280;44794;42.652;23.318;2023-07-29T07:27:38;94472.69;;;38.41;21.73
59009;BME280;44794;42.652;23.318;2023-07-29T07:30:04;94471.38;;;38.90;21.11
59009;BME280;44794;42.652;23.318;2023-07-29T07:32:30;94475.88;;;39.65;20.11
59009;BME280;44794;42.652;23.318;2023-07-29T07:34:55;94463.53;;;39.12;20.79
59009;BME280;44794;42.652;23.318;2023-07-29T07:37:20;94468.53;;;39.23;21.17
59009;BME280;44794;42.652;23.318;2023-07-29T07:39:46;94463.91;;;39.84;20.54
59009;BME280;44794;42.652;23.318;2023-07-29T07:42:11;94470.44;;;39.65;20.83
59009;BME280;44794;42.652;23.318;2023-07-29T07:44:36;94466.63;;;39.01;21.12
59009;BME280;44794;42.652;23.318;2023-07-29T07:47:02;94464.63;;;38.88;21.58
59009;BME280;44794;42.652;23.318;2023-07-29T07:49:28;94466.88;;;39.88;20.67
59009;BME280;44794;42.652;23.318;2023-07-29T07:51:53;94471.31;;;39.18;21.39
59009;BME280;44794;42.652;23.318;2023-07-29T07:54:18;94455.69;;;38.31;22.23
59009;BME280;44794;42.652;23.318;2023-07-29T07:56:44;94457.47;;;37.73;22.84
59009;BME280;44794;42.652;23.318;2023-07-29T07:59:09;94452.25;;;36.85;24.25
59009;BME280;44794;42.652;23.318;2023-07-29T08:01:36;94452.75;;;36.97;24.60
59009;BME280;44794;42.652;23.318;2023-07-29T08:04:02;94457.53;;;36.42;24.31
59009;BME280;44794;42.652;23.318;2023-07-29T08:06:27;94459.88;;;34.68;27.19
59009;BME280;44794;42.652;23.318;2023-07-29T08:08:52;94451.03;;;32.31;31.19
59009;BME280;44794;42.652;23.318;2023-07-29T08:11:18;94442.31;;;31.26;32.60
59009;BME280;44794;42.652;23.318;2023-07-29T08:13:43;94445.72;;;30.43;33.61
59009;BME280;44794;42.652;23.318;2023-07-29T08:16:09;94445.25;;;29.02;35.04
59009;BME280;44794;42.652;23.318;2023-07-29T08:18:34;94436.81;;;28.22;36.86
59009;BME280;44794;42.652;23.318;2023-07-29T08:21:00;94447.16;;;28.12;36.93
59009;BME280;44794;42.652;23.318;2023-07-29T08:23:30;94451.34;;;28.26;37.34
59009;BME280;44794;42.652;23.318;2023-07-29T08:25:58;94436.63;;;27.99;37.78
59009;BME280;44794;42.652;23.318;2023-07-29T08:28:38;94437.03;;;27.60;38.44
59009;BME280;44794;42.652;23.318;2023-07-29T08:31:04;94437.38;;;27.15;39.60
59009;BME280;44794;42.652;23.318;2023-07-29T08:33:31;94439.94;;;26.97;39.51
59009;BME280;44794;42.652;23.318;2023-07-29T08:35:58;94432.81;;;27.22;39.62
59009;BME280;44794;42.652;23.318;2023-07-29T08:38:23;94432.38;;;27.25;38.50
59009;BME280;44794;42.652;23.318;2023-07-29T08:41:14;94435.16;;;27.36;38.99
59009;BME280;44794;42.652;23.318;2023-07-29T08:46:32;94432.94;;;27.09;38.21
59009;BME280;44794;42.652;23.318;2023-07-29T08:48:59;94434.28;;;26.87;37.72
59009;BME280;44794;42.652;23.318;2023-07-29T08:51:29;94414.31;;;26.96;37.63
59009;BME280;44794;42.652;23.318;2023-07-29T08:53:56;94419.34;;;27.17;37.86
59009;BME280;44794;42.652;23.318;2023-07-29T08:56:22;94418.28;;;27.18;37.83
59009;BME280;44794;42.652;23.318;2023-07-29T08:58:48;94414.28;;;27.03;37.36
59009;BME280;44794;42.652;23.318;2023-07-29T09:01:15;94414.69;;;27.06;35.80
59009;BME280;44794;42.652;23.318;2023-07-29T09:03:41;94427.59;;;27.09;36.27
59009;BME280;44794;42.652;23.318;2023-07-29T09:06:07;94423.34;;;27.26;36.04
59009;BME280;44794;42.652;23.318;2023-07-29T09:08:34;94422.94;;;27.47;34.42
59009;BME280;44794;42.652;23.318;2023-07-29T09:11:00;94418.06;;;27.68;34.61
59009;BME280;44794;42.652;23.318;2023-07-29T09:13:25;94420.66;;;27.75;35.45
59009;BME280;44794;42.652;23.318;2023-07-29T09:15:54;94417.03;;;27.69;35.53
59009;BME280;44794;42.652;23.318;2023-07-29T09:18:21;94415.78;;;27.72;34.60
59009;BME280;44794;42.652;23.318;2023-07-29T09:20:48;94412.69;;;27.93;35.27
59009;BME280;44794;42.652;23.318;2023-07-29T09:23:13;94407.34;;;27.93;35.44
59009;BME280;44794;42.652;23.318;2023-07-29T09:25:39;94397.97;;;28.02;35.94
59009;BME280;44794;42.652;23.318;2023-07-29T09:28:10;94398.34;;;28.05;36.02
59009;BME280;44794;42.652;23.318;2023-07-29T09:30:37;94398.97;;;28.07;35.03
59009;BME280;44794;42.652;23.318;2023-07-29T09:33:02;94391.81;;;28.19;34.78
59009;BME280;44794;42.652;23.318;2023-07-29T09:35:30;94400.84;;;28.24;34.18
59009;BME280;44794;42.652;23.318;2023-07-29T09:37:57;94400.00;;;28.42;34.51
59009;BME280;44794;42.652;23.318;2023-07-29T09:40:22;94391.47;;;28.33;35.03
59009;BME280;44794;42.652;23.318;2023-07-29T09:42:52;94387.47;;;28.42;34.63
59009;BME280;44794;42.652;23.318;2023-07-29T09:45:22;94389.84;;;28.62;33.75
59009;BME280;44794;42.652;23.318;2023-07-29T09:47:48;94386.94;;;28.34;32.86
59009;BME280;44794;42.652;23.318;2023-07-29T09:50:13;94381.69;;;28.27;33.61
59009;BME280;44794;42.652;23.318;2023-07-29T09:52:39;94375.34;;;28.40;33.41
59009;BME280;44794;42.652;23.318;2023-07-29T09:55:05;94383.88;;;28.48;32.88
59009;BME280;44794;42.652;23.318;2023-07-29T09:57:31;94376.78;;;28.42;31.73
59009;BME280;44794;42.652;23.318;2023-07-29T09:59:57;94378.91;;;28.34;31.93
59009;BME280;44794;42.652;23.318;2023-07-29T10:02:23;94380.31;;;28.36;32.35
59009;BME280;44794;42.652;23.318;2023-07-29T10:04:52;94376.47;;;28.32;31.84
59009;BME280;44794;42.652;23.318;2023-07-29T10:07:18;94377.81;;;28.23;32.43
59009;BME280;44794;42.652;23.318;2023-07-29T10:09:45;94377.63;;;28.25;32.83
59009;BME280;44794;42.652;23.318;2023-07-29T10:12:11;94369.13;;;28.28;32.93
59009;BME280;44794;42.652;23.318;2023-07-29T10:14:38;94369.78;;;28.41;31.60
59009;BME280;44794;42.652;23.318;2023-07-29T10:17:05;94367.50;;;28.27;32.21
59009;BME280;44794;42.652;23.318;2023-07-29T10:19:31;94373.88;;;28.26;32.61
59009;BME280;44794;42.652;23.318;2023-07-29T10:21:59;94358.50;;;28.39;31.40
59009;BME280;44794;42.652;23.318;2023-07-29T10:24:30;94359.66;;;28.43;31.16
59009;BME280;44794;42.652;23.318;2023-07-29T10:26:58;94347.75;;;28.46;31.52
59009;BME280;44794;42.652;23.318;2023-07-29T10:29:24;94342.41;;;28.57;32.79
59009;BME280;44794;42.652;23.318;2023-07-29T10:31:54;94340.00;;;28.67;30.94
59009;BME280;44794;42.652;23.318;2023-07-29T10:34:22;94337.47;;;28.72;30.81
59009;BME280;44794;42.652;23.318;2023-07-29T10:36:49;94336.84;;;28.88;31.25
59009;BME280;44794;42.652;23.318;2023-07-29T10:39:15;94334.94;;;28.77;30.08
59009;BME280;44794;42.652;23.318;2023-07-29T10:47:11;94332.84;;;28.79;30.05
59009;BME280;44794;42.652;23.318;2023-07-29T10:49:43;94333.81;;;28.85;29.87
59009;BME280;44794;42.652;23.318;2023-07-29T10:52:08;94330.47;;;29.00;30.70
59009;BME280;44794;42.652;23.318;2023-07-29T10:54:47;94325.72;;;29.25;30.91
59009;BME280;44794;42.652;23.318;2023-07-29T10:57:38;94322.03;;;29.38;29.54
59009;BME280;44794;42.652;23.318;2023-07-29T11:00:06;94316.44;;;29.39;29.78
59009;BME280;44794;42.652;23.318;2023-07-29T11:02:34;94315.75;;;29.44;29.52
59009;BME280;44794;42.652;23.318;2023-07-29T11:05:15;94318.41;;;29.44;29.27
59009;BME280;44794;42.652;23.318;2023-07-29T11:07:46;94307.22;;;29.24;29.62
59009;BME280;44794;42.652;23.318;2023-07-29T11:10:13;94320.81;;;29.34;29.35
59009;BME280;44794;42.652;23.318;2023-07-29T11:12:59;94309.09;;;29.35;29.54
59009;BME280;44794;42.652;23.318;2023-07-29T11:15:26;94307.47;;;29.57;29.08
59009;BME280;44794;42.652;23.318;2023-07-29T11:17:54;94314.56;;;29.63;28.29
59009;BME280;44794;42.652;23.318;2023-07-29T11:20:22;94315.25;;;29.58;28.48
59009;BME280;44794;42.652;23.318;2023-07-29T11:22:47;94313.41;;;29.59;28.11
59009;BME280;44794;42.652;23.318;2023-07-29T11:25:15;94315.50;;;29.57;28.28
59009;BME280;44794;42.652;23.318;2023-07-29T11:27:41;94310.25;;;29.62;27.91
59009;BME280;44794;42.652;23.318;2023-07-29T11:30:08;94306.75;;;29.72;28.03
59009;BME280;44794;42.652;23.318;2023-07-29T11:32:35;94302.66;;;29.93;28.08
59009;BME280;44794;42.652;23.318;2023-07-29T11:35:05;94303.88;;;30.13;28.79
59009;BME280;44794;42.652;23.318;2023-07-29T11:37:36;94299.75;;;30.34;28.97
59009;BME280;44794;42.652;23.318;2023-07-29T11:40:01;94293.63;;;30.49;27.24
59009;BME280;44794;42.652;23.318;2023-07-29T11:42:27;94288.69;;;30.58;27.54
59009;BME280;44794;42.652;23.318;2023-07-29T11:44:56;94278.53;;;30.60;28.08
59009;BME280;44794;42.652;23.318;2023-07-29T11:47:22;94285.31;;;30.79;28.20
59009;BME280;44794;42.652;23.318;2023-07-29T11:49:47;94275.25;;;30.86;28.41
59009;BME280;44794;42.652;23.318;2023-07-29T11:52:13;94280.97;;;31.06;27.44
59009;BME280;44794;42.652;23.318;2023-07-29T11:54:39;94275.72;;;30.83;26.73
59009;BME280;44794;42.652;23.318;2023-07-29T11:57:08;94283.56;;;30.56;26.66
59009;BME280;44794;42.652;23.318;2023-07-29T11:59:35;94288.28;;;30.38;26.87
59009;BME280;44794;42.652;23.318;2023-07-29T12:02:01;94273.00;;;30.22;27.32
59009;BME280;44794;42.652;23.318;2023-07-29T12:04:30;94280.22;;;30.38;27.63
59009;BME280;44794;42.652;23.318;2023-07-29T12:06:56;94272.31;;;30.43;26.45
59009;BME280;44794;42.652;23.318;2023-07-29T12:09:21;94274.00;;;30.33;26.56
59009;BME280;44794;42.652;23.318;2023-07-29T12:11:47;94272.50;;;30.25;26.56
59009;BME280;44794;42.652;23.318;2023-07-29T12:14:13;94267.66;;;30.39;27.37
59009;BME280;44794;42.652;23.318;2023-07-29T12:16:42;94268.78;;;30.43;26.41
59009;BME280;44794;42.652;23.318;2023-07-29T12:19:08;94272.84;;;30.45;26.06
59009;BME280;44794;42.652;23.318;2023-07-29T12:21:33;94253.06;;;30.46;26.45
59009;BME280;44794;42.652;23.318;2023-07-29T12:24:02;94259.09;;;30.53;27.82
59009;BME280;44794;42.652;23.318;2023-07-29T12:26:28;94251.91;;;30.70;26.49
59009;BME280;44794;42.652;23.318;2023-07-29T12:28:54;94245.81;;;30.74;26.22
59009;BME280;44794;42.652;23.318;2023-07-29T12:31:21;94253.44;;;30.82;26.69
59009;BME280;44794;42.652;23.318;2023-07-29T12:33:47;94243.19;;;30.96;26.62
59009;BME280;44794;42.652;23.318;2023-07-29T12:36:12;94244.50;;;30.77;26.10
59009;BME280;44794;42.652;23.318;2023-07-29T12:38:37;94244.44;;;30.88;26.39
59009;BME280;44794;42.652;23.318;2023-07-29T12:41:03;94242.16;;;30.80;26.18
59009;BME280;44794;42.652;23.318;2023-07-29T12:43:28;94240.84;;;30.83;26.20
59009;BME280;44794;42.652;23.318;2023-07-29T12:45:54;94248.09;;;30.82;26.21
59009;BME280;44794;42.652;23.318;2023-07-29T12:48:19;94242.97;;;30.97;26.10
59009;BME280;44794;42.652;23.318;2023-07-29T12:50:45;94245.72;;;31.19;25.86
59009;BME280;44794;42.652;23.318;2023-07-29T12:53:11;94242.66;;;31.48;25.01
59009;BME280;44794;42.652;23.318;2023-07-29T12:55:36;94245.25;;;31.59;24.82
59009;BME280;44794;42.652;23.318;2023-07-29T12:58:02;94240.06;;;31.36;24.87
59009;BME280;44794;42.652;23.318;2023-07-29T13:00:27;94244.91;;;31.34;24.47
59009;BME280;44794;42.652;23.318;2023-07-29T13:02:53;94240.78;;;31.48;24.50
59009;BME280;44794;42.652;23.318;2023-07-29T13:05:19;94248.69;;;31.38;24.08